Time;durP1;ratioP1;P1;durP2;ratioP2;P2;SDS_P1;SDS_P2;PMS_P1;PMS_P2;Temp;Humidity;BMP_temperature;BMP_pressure;BME280_temperature;BME280_humidity;BME280_pressure;Samples;Min_cycle;Max_cycle;Signal;HPM_P1;HPM_P2
2022/11/24 00:00:16;;;;;;;18.73;10.07;;;;;;;;;;6291339;22;20008;-83
2022/11/24 00:02:42;;;;;;;16.67;10.95;;;;;;;;;;6263701;22;20004;-82
2022/11/24 00:05:08;;;;;;;16.92;10.20;;;;;;;;;;6289406;22;20022;-83
2022/11/24 00:07:34;;;;;;;20.50;10.80;;;;;;;;;;6289912;22;20302;-83
2022/11/24 00:10:00;;;;;;;19.63;11.43;;;;;;;;;;6260727;22;20007;-84
2022/11/24 00:12:26;;;;;;;21.33;10.90;;;;;;;;;;6261773;22;19992;-83
2022/11/24 00:14:52;;;;;;;17.60;10.15;;;;;;;;;;6261821;22;20038;-82
2022/11/24 00:17:18;;;;;;;19.75;10.77;;;;;;;;;;6262357;22;20000;-82
2022/11/24 00:19:44;;;;;;;16.15;9.18;;;;;;;;;;6289514;22;20026;-82
2022/11/24 00:22:10;;;;;;;18.20;10.07;;;;;;;;;;6288720;22;20007;-82
2022/11/24 00:24:36;;;;;;;14.70;8.57;;;;;;;;;;6290210;22;19995;-82
2022/11/24 00:27:02;;;;;;;17.10;9.80;;;;;;;;;;6290860;22;20049;-82
2022/11/24 00:29:28;;;;;;;18.33;10.38;;;;;;;;;;6289281;22;20000;-83
2022/11/24 00:31:56;;;;;;;17.92;9.38;;;;;;;;;;6262820;22;20006;-82
2022/11/24 00:34:22;;;;;;;15.80;8.80;;;;;;;;;;6261892;22;20000;-82
2022/11/24 00:36:48;;;;;;;14.82;8.80;;;;;;;;;;6290536;22;19999;-83
2022/11/24 00:39:15;;;;;;;16.98;8.93;;;;;;;;;;6288643;22;20007;-83
2022/11/24 00:41:41;;;;;;;20.38;10.32;;;;;;;;;;6289824;22;20020;-83
2022/11/24 00:44:07;;;;;;;20.27;10.07;;;;;;;;;;6288742;22;20074;-83
2022/11/24 00:46:34;;;;;;;17.50;9.75;;;;;;;;;;6287795;22;20004;-83
2022/11/24 00:49:00;;;;;;;18.15;10.05;;;;;;;;;;6288847;22;19999;-80
2022/11/24 00:51:29;;;;;;;18.77;10.48;;;;;;;;;;6260708;22;20003;-80
2022/11/24 00:53:55;;;;;;;17.65;9.82;;;;;;;;;;6261758;22;19995;-81
2022/11/24 00:56:21;;;;;;;17.17;9.48;;;;;;;;;;6287690;22;20004;-82
2022/11/24 00:58:47;;;;;;;18.15;9.32;;;;;;;;;;6261828;22;20003;-83
2022/11/24 01:01:15;;;;;;;17.77;8.93;;;;;;;;;;6289014;22;20004;-82
2022/11/24 01:03:42;;;;;;;16.48;9.40;;;;;;;;;;6262459;22;20058;-83
2022/11/24 01:06:08;;;;;;;16.25;9.23;;;;;;;;;;6290129;22;20000;-82
2022/11/24 01:08:35;;;;;;;18.92;9.57;;;;;;;;;;6290423;22;20003;-82
2022/11/24 01:11:14;;;;;;;14.95;9.35;;;;;;;;;;6288655;22;19996;-82
2022/11/24 01:13:41;;;;;;;14.45;7.90;;;;;;;;;;6289040;22;20000;-82
2022/11/24 01:16:13;;;;;;;14.57;8.88;;;;;;;;;;6265022;22;19996;-83
2022/11/24 01:18:39;;;;;;;14.75;7.90;;;;;;;;;;6270196;22;20015;-81
2022/11/24 01:21:05;;;;;;;17.77;8.85;;;;;;;;;;6298065;22;19999;-82
2022/11/24 01:23:31;;;;;;;15.45;7.38;;;;;;;;;;6299722;22;20004;-82
2022/11/24 01:25:57;;;;;;;16.85;7.93;;;;;;;;;;6300766;22;20012;-82
2022/11/24 01:28:23;;;;;;;14.48;8.15;;;;;;;;;;6295704;22;20019;-82
2022/11/24 01:30:59;;;;;;;14.30;6.88;;;;;;;;;;6266579;22;20000;-82
2022/11/24 01:33:25;;;;;;;13.10;6.85;;;;;;;;;;6293184;22;20021;-82
2022/11/24 01:35:51;;;;;;;14.32;7.47;;;;;;;;;;6291583;22;20055;-83
2022/11/24 01:38:17;;;;;;;14.63;7.50;;;;;;;;;;6291515;22;20003;-82
2022/11/24 01:40:43;;;;;;;17.48;7.70;;;;;;;;;;6293797;22;20000;-82
2022/11/24 01:43:20;;;;;;;17.50;9.27;;;;;;;;;;6292026;22;20041;-83
2022/11/24 01:45:46;;;;;;;18.80;10.32;;;;;;;;;;6265078;22;20015;-82
2022/11/24 01:48:17;;;;;;;17.73;8.98;;;;;;;;;;6263246;22;20011;-82
2022/11/24 01:50:44;;;;;;;20.20;10.70;;;;;;;;;;6263313;22;20090;-82
2022/11/24 01:53:11;;;;;;;19.33;10.25;;;;;;;;;;6298574;22;20077;-81
2022/11/24 01:55:39;;;;;;;18.63;9.45;;;;;;;;;;6272526;22;19988;-80
2022/11/24 01:58:06;;;;;;;19.02;11.05;;;;;;;;;;6298190;22;19988;-82
2022/11/24 02:00:34;;;;;;;16.70;9.48;;;;;;;;;;6270759;22;20038;-82
2022/11/24 02:03:00;;;;;;;16.02;10.60;;;;;;;;;;6259968;22;20435;-81
2022/11/24 02:05:29;;;;;;;20.55;10.48;;;;;;;;;;6288017;22;20011;-83
2022/11/24 02:07:56;;;;;;;16.48;10.27;;;;;;;;;;6287560;22;20070;-82
2022/11/24 02:10:23;;;;;;;19.90;11.18;;;;;;;;;;6259415;22;19999;-82
2022/11/24 02:12:51;;;;;;;21.40;11.18;;;;;;;;;;6259518;22;20027;-82
2022/11/24 02:15:17;;;;;;;22.27;10.73;;;;;;;;;;6286811;22;20088;-83
2022/11/24 02:17:43;;;;;;;18.48;11.27;;;;;;;;;;6259235;22;20004;-82
2022/11/24 02:20:10;;;;;;;19.38;11.40;;;;;;;;;;6285432;22;20440;-83
2022/11/24 02:22:36;;;;;;;22.02;11.32;;;;;;;;;;6259721;22;20011;-82
2022/11/24 02:25:09;;;;;;;19.80;11.43;;;;;;;;;;6260175;22;20035;-82
2022/11/24 02:27:35;;;;;;;17.23;10.32;;;;;;;;;;6259108;22;20004;-83
2022/11/24 02:30:01;;;;;;;16.40;10.30;;;;;;;;;;6287700;22;20007;-83
2022/11/24 02:32:27;;;;;;;19.90;11.48;;;;;;;;;;6287866;22;20000;-82
2022/11/24 02:35:05;;;;;;;18.45;11.65;;;;;;;;;;6258848;22;20022;-82
2022/11/24 02:37:31;;;;;;;17.83;11.52;;;;;;;;;;6258089;22;20026;-83
2022/11/24 02:39:57;;;;;;;18.73;10.90;;;;;;;;;;6258608;22;20004;-82
2022/11/24 02:42:24;;;;;;;17.40;10.20;;;;;;;;;;6283917;22;20014;-82
2022/11/24 02:44:52;;;;;;;16.70;9.13;;;;;;;;;;6284979;22;20439;-83
2022/11/24 02:47:18;;;;;;;16.05;9.40;;;;;;;;;;6260449;22;20350;-83
2022/11/24 02:49:44;;;;;;;16.38;9.13;;;;;;;;;;6286383;22;19999;-81
2022/11/24 02:52:10;;;;;;;17.30;9.18;;;;;;;;;;6287935;22;19995;-82
2022/11/24 02:54:36;;;;;;;17.20;10.25;;;;;;;;;;6287029;22;20408;-83
2022/11/24 02:57:02;;;;;;;15.85;8.75;;;;;;;;;;6259034;22;19999;-82
2022/11/24 02:59:28;;;;;;;17.05;9.43;;;;;;;;;;6285391;22;20326;-84
2022/11/24 03:01:54;;;;;;;15.27;9.05;;;;;;;;;;6257948;22;20534;-83
2022/11/24 03:04:20;;;;;;;15.45;9.48;;;;;;;;;;6284449;22;20000;-82
2022/11/24 03:06:46;;;;;;;16.42;9.38;;;;;;;;;;6285470;22;20029;-83
2022/11/24 03:09:12;;;;;;;16.80;9.65;;;;;;;;;;6285112;22;20007;-82
2022/11/24 03:11:38;;;;;;;15.60;8.57;;;;;;;;;;6259956;22;20078;-83
2022/11/24 03:14:04;;;;;;;21.17;10.20;;;;;;;;;;6286797;22;20023;-82
2022/11/24 03:16:30;;;;;;;16.73;9.52;;;;;;;;;;6260803;22;20004;-82
2022/11/24 03:18:56;;;;;;;18.55;11.05;;;;;;;;;;6289331;22;20007;-83
2022/11/24 03:21:22;;;;;;;17.67;9.93;;;;;;;;;;6286610;22;20000;-82
2022/11/24 03:23:48;;;;;;;19.45;11.88;;;;;;;;;;6288676;22;20030;-83
2022/11/24 03:26:16;;;;;;;19.80;11.10;;;;;;;;;;6260550;22;20015;-82
2022/11/24 03:28:42;;;;;;;19.00;10.60;;;;;;;;;;6290131;22;20027;-83
2022/11/24 03:31:08;;;;;;;20.65;11.38;;;;;;;;;;6287853;22;20022;-83
2022/11/24 03:33:35;;;;;;;20.65;11.23;;;;;;;;;;6288269;22;20041;-83
2022/11/24 03:36:01;;;;;;;19.30;11.07;;;;;;;;;;6289177;22;19995;-83
2022/11/24 03:38:27;;;;;;;18.80;10.55;;;;;;;;;;6261444;22;20122;-82
2022/11/24 03:40:53;;;;;;;21.52;11.82;;;;;;;;;;6262573;22;20086;-83
2022/11/24 03:43:20;;;;;;;21.63;11.40;;;;;;;;;;6263265;22;20007;-82
2022/11/24 03:45:46;;;;;;;21.33;10.70;;;;;;;;;;6262736;22;20268;-82
2022/11/24 03:48:13;;;;;;;20.58;11.45;;;;;;;;;;6289720;22;20703;-82
2022/11/24 03:50:39;;;;;;;20.13;11.88;;;;;;;;;;6290038;22;20016;-82
2022/11/24 03:53:05;;;;;;;21.48;11.18;;;;;;;;;;6264175;22;20385;-83
2022/11/24 03:55:31;;;;;;;22.15;12.13;;;;;;;;;;6292282;22;20022;-83
2022/11/24 03:57:57;;;;;;;17.35;10.65;;;;;;;;;;6262789;22;20057;-84
2022/11/24 04:00:23;;;;;;;19.38;12.40;;;;;;;;;;6262115;22;20007;-82
2022/11/24 04:02:49;;;;;;;20.08;12.25;;;;;;;;;;6264217;22;20026;-85
2022/11/24 04:05:15;;;;;;;21.98;11.05;;;;;;;;;;6262045;22;20071;-82
2022/11/24 04:07:41;;;;;;;21.85;10.82;;;;;;;;;;6264211;22;20038;-84
2022/11/24 04:10:07;;;;;;;22.08;11.40;;;;;;;;;;6290166;22;20000;-84
2022/11/24 04:12:42;;;;;;;22.13;11.85;;;;;;;;;;6290247;22;20026;-82
2022/11/24 04:15:09;;;;;;;19.73;11.63;;;;;;;;;;6288366;22;20000;-83
2022/11/24 04:17:35;;;;;;;19.02;10.30;;;;;;;;;;6289332;22;20003;-82
2022/11/24 04:20:01;;;;;;;16.48;9.73;;;;;;;;;;6259790;22;20000;-82
2022/11/24 04:22:27;;;;;;;21.92;10.73;;;;;;;;;;6262163;22;20008;-82
2022/11/24 04:24:53;;;;;;;18.80;10.40;;;;;;;;;;6288649;22;20197;-82
2022/11/24 04:27:19;;;;;;;20.45;10.15;;;;;;;;;;6289198;22;20023;-82
2022/11/24 04:29:45;;;;;;;18.52;9.75;;;;;;;;;;6260994;22;20008;-83
2022/11/24 04:32:11;;;;;;;17.42;10.35;;;;;;;;;;6285717;22;19996;-82
2022/11/24 04:34:38;;;;;;;18.63;9.63;;;;;;;;;;6289151;22;20008;-82
2022/11/24 04:37:04;;;;;;;17.52;10.35;;;;;;;;;;6262041;22;20007;-84
2022/11/24 04:39:30;;;;;;;17.77;10.23;;;;;;;;;;6262565;22;20007;-84
2022/11/24 04:41:56;;;;;;;19.52;10.45;;;;;;;;;;6263626;22;20011;-83
2022/11/24 04:44:22;;;;;;;19.00;10.75;;;;;;;;;;6289783;22;20096;-83
2022/11/24 04:46:48;;;;;;;19.00;11.05;;;;;;;;;;6290744;22;20003;-83
2022/11/24 04:49:14;;;;;;;19.23;10.45;;;;;;;;;;6262039;22;20100;-83
2022/11/24 04:51:40;;;;;;;21.58;10.75;;;;;;;;;;6263937;22;19999;-81
2022/11/24 04:54:07;;;;;;;18.27;9.15;;;;;;;;;;6264073;22;20000;-81
2022/11/24 04:56:33;;;;;;;17.40;10.13;;;;;;;;;;6290012;22;20007;-83
2022/11/24 04:59:00;;;;;;;18.88;9.85;;;;;;;;;;6289685;22;20446;-82
2022/11/24 05:01:26;;;;;;;19.20;10.38;;;;;;;;;;6288264;22;20006;-82
2022/11/24 05:03:55;;;;;;;16.88;9.27;;;;;;;;;;6288941;22;20000;-83
2022/11/24 05:06:22;;;;;;;18.15;10.13;;;;;;;;;;6288046;22;20006;-85
2022/11/24 05:08:48;;;;;;;20.35;10.98;;;;;;;;;;6290347;22;20079;-80
2022/11/24 05:11:15;;;;;;;18.05;11.18;;;;;;;;;;6260143;22;20015;-80
2022/11/24 05:13:41;;;;;;;21.35;10.52;;;;;;;;;;6261282;22;20010;-81
2022/11/24 05:16:07;;;;;;;18.08;9.38;;;;;;;;;;6286759;22;20339;-79
2022/11/24 05:18:33;;;;;;;18.08;11.48;;;;;;;;;;6291323;22;20003;-83
2022/11/24 05:21:00;;;;;;;21.13;11.40;;;;;;;;;;6261962;22;20010;-82
2022/11/24 05:23:26;;;;;;;20.45;10.68;;;;;;;;;;6262004;22;20000;-82
2022/11/24 05:25:52;;;;;;;18.48;10.40;;;;;;;;;;6286003;22;20015;-80
2022/11/24 05:28:18;;;;;;;18.70;10.77;;;;;;;;;;6260023;22;20011;-80
2022/11/24 05:30:45;;;;;;;22.05;10.93;;;;;;;;;;6285058;22;20006;-80
2022/11/24 05:33:16;;;;;;;19.80;10.02;;;;;;;;;;6259385;22;20007;-81
2022/11/24 05:35:43;;;;;;;21.93;10.53;;;;;;;;;;6286325;22;20003;-81
2022/11/24 05:38:09;;;;;;;17.85;9.93;;;;;;;;;;6260114;22;20698;-82
2022/11/24 05:40:35;;;;;;;18.73;10.50;;;;;;;;;;6259268;22;20240;-82
2022/11/24 05:43:01;;;;;;;19.90;11.48;;;;;;;;;;6287260;22;20052;-82
2022/11/24 05:45:28;;;;;;;17.27;10.48;;;;;;;;;;6258301;22;20019;-80
2022/11/24 05:47:54;;;;;;;16.75;9.35;;;;;;;;;;6284692;22;20078;-81
2022/11/24 05:50:20;;;;;;;18.92;10.73;;;;;;;;;;6258391;22;20012;-82
2022/11/24 05:52:47;;;;;;;19.25;10.50;;;;;;;;;;6256225;22;20000;-81
2022/11/24 05:55:14;;;;;;;18.52;9.85;;;;;;;;;;6289161;22;19996;-81
2022/11/24 05:57:40;;;;;;;16.73;9.40;;;;;;;;;;6262401;22;19999;-81
2022/11/24 06:00:07;;;;;;;20.58;12.02;;;;;;;;;;6288333;22;20390;-82
2022/11/24 06:02:33;;;;;;;17.30;10.38;;;;;;;;;;6288184;22;20070;-82
2022/11/24 06:04:59;;;;;;;20.00;10.35;;;;;;;;;;6288865;22;20055;-80
2022/11/24 06:07:25;;;;;;;18.27;8.95;;;;;;;;;;6288722;22;20010;-82
2022/11/24 06:09:51;;;;;;;16.00;9.30;;;;;;;;;;6289174;22;20059;-81
2022/11/24 06:12:19;;;;;;;15.40;8.05;;;;;;;;;;6290399;22;19996;-82
2022/11/24 06:14:45;;;;;;;16.25;8.45;;;;;;;;;;6263136;22;20030;-81
2022/11/24 06:17:13;;;;;;;16.58;9.95;;;;;;;;;;6288627;22;20071;-82
2022/11/24 06:19:39;;;;;;;14.02;9.00;;;;;;;;;;6263239;22;20010;-82
2022/11/24 06:22:05;;;;;;;16.50;9.02;;;;;;;;;;6290337;22;20003;-82
2022/11/24 06:24:39;;;;;;;15.38;9.45;;;;;;;;;;6291999;22;20000;-82
2022/11/24 06:27:06;;;;;;;16.42;8.23;;;;;;;;;;6265881;22;20014;-82
2022/11/24 06:29:32;;;;;;;16.73;9.52;;;;;;;;;;6292646;22;20000;-81
2022/11/24 06:31:58;;;;;;;13.20;7.55;;;;;;;;;;6263973;22;20004;-83
2022/11/24 06:34:24;;;;;;;12.05;7.63;;;;;;;;;;6263622;22;20003;-82
2022/11/24 06:36:50;;;;;;;18.48;12.95;;;;;;;;;;6262207;22;20000;-81
2022/11/24 06:39:16;;;;;;;16.08;8.30;;;;;;;;;;6265131;22;20010;-82
2022/11/24 06:41:42;;;;;;;12.98;7.75;;;;;;;;;;6265555;22;20032;-82
2022/11/24 06:44:08;;;;;;;12.23;7.53;;;;;;;;;;6291107;22;19999;-82
2022/11/24 06:46:34;;;;;;;13.50;8.63;;;;;;;;;;6292678;22;20007;-81
2022/11/24 06:49:01;;;;;;;12.60;7.30;;;;;;;;;;6290302;22;20015;-81
2022/11/24 06:51:27;;;;;;;16.20;8.65;;;;;;;;;;6290941;22;20251;-80
2022/11/24 06:53:53;;;;;;;12.00;6.85;;;;;;;;;;6292661;22;20067;-81
2022/11/24 06:56:20;;;;;;;14.60;8.65;;;;;;;;;;6291484;22;20000;-83
2022/11/24 06:58:47;;;;;;;12.73;7.20;;;;;;;;;;6261556;22;20007;-81
2022/11/24 07:01:16;;;;;;;12.45;6.25;;;;;;;;;;6289397;22;20034;-81
2022/11/24 07:03:42;;;;;;;12.18;7.32;;;;;;;;;;6265401;22;20010;-82
2022/11/24 07:06:08;;;;;;;11.88;7.20;;;;;;;;;;6291955;22;20000;-81
2022/11/24 07:08:34;;;;;;;12.50;7.38;;;;;;;;;;6289942;22;20030;-81
2022/11/24 07:11:07;;;;;;;11.15;6.07;;;;;;;;;;6290119;22;20067;-82
2022/11/24 07:13:34;;;;;;;11.88;6.90;;;;;;;;;;6292062;22;20011;-82
2022/11/24 07:16:00;;;;;;;11.15;6.30;;;;;;;;;;6265277;22;20007;-83
2022/11/24 07:18:26;;;;;;;11.50;5.90;;;;;;;;;;6262331;22;20030;-81
2022/11/24 07:20:52;;;;;;;10.68;6.03;;;;;;;;;;6292292;22;19996;-82
2022/11/24 07:23:18;;;;;;;11.75;6.28;;;;;;;;;;6292048;22;20015;-82
2022/11/24 07:25:44;;;;;;;10.27;6.00;;;;;;;;;;6264272;22;20335;-82
2022/11/24 07:28:10;;;;;;;10.30;6.60;;;;;;;;;;6264066;22;20023;-81
2022/11/24 07:30:36;;;;;;;10.50;6.03;;;;;;;;;;6261784;22;20004;-81
2022/11/24 07:33:03;;;;;;;9.52;5.88;;;;;;;;;;6261784;22;20086;-81
2022/11/24 07:35:30;;;;;;;11.45;6.03;;;;;;;;;;6290594;22;19996;-82
2022/11/24 07:37:59;;;;;;;9.40;5.10;;;;;;;;;;6289444;22;20348;-82
2022/11/24 07:40:25;;;;;;;9.07;5.70;;;;;;;;;;6288950;22;20023;-82
2022/11/24 07:42:51;;;;;;;8.27;5.43;;;;;;;;;;6265123;22;20035;-83
2022/11/24 07:45:17;;;;;;;9.88;5.72;;;;;;;;;;6265938;22;20020;-82
2022/11/24 07:47:43;;;;;;;10.98;6.22;;;;;;;;;;6293648;22;20004;-81
2022/11/24 07:50:10;;;;;;;9.02;5.25;;;;;;;;;;6293054;22;20050;-81
2022/11/24 07:52:37;;;;;;;10.07;5.57;;;;;;;;;;6263462;22;19999;-82
2022/11/24 07:55:03;;;;;;;8.98;5.80;;;;;;;;;;6262912;22;19995;-82
2022/11/24 07:57:30;;;;;;;8.73;5.03;;;;;;;;;;6290089;22;20050;-82
2022/11/24 07:59:56;;;;;;;8.75;5.72;;;;;;;;;;6291767;22;20004;-82
2022/11/24 08:02:22;;;;;;;9.02;4.82;;;;;;;;;;6263364;22;20014;-82
2022/11/24 08:04:48;;;;;;;9.10;5.47;;;;;;;;;;6291223;22;20053;-82
2022/11/24 08:07:14;;;;;;;9.70;5.85;;;;;;;;;;6262731;22;20091;-82
2022/11/24 08:09:41;;;;;;;8.75;5.25;;;;;;;;;;6261771;22;20004;-82
2022/11/24 08:12:07;;;;;;;8.90;4.72;;;;;;;;;;6293256;22;20030;-80
2022/11/24 08:14:33;;;;;;;8.90;5.38;;;;;;;;;;6297562;22;20329;-82
2022/11/24 08:16:59;;;;;;;8.88;4.57;;;;;;;;;;6293481;22;20021;-81
2022/11/24 08:19:25;;;;;;;9.82;5.20;;;;;;;;;;6265512;22;20004;-81
2022/11/24 08:21:51;;;;;;;8.13;4.53;;;;;;;;;;6266348;22;20007;-81
2022/11/24 08:24:17;;;;;;;10.02;5.15;;;;;;;;;;6265799;22;20019;-80
2022/11/24 08:26:43;;;;;;;7.45;4.50;;;;;;;;;;6266562;22;20003;-80
2022/11/24 08:29:09;;;;;;;9.13;5.28;;;;;;;;;;6265381;22;20042;-81
2022/11/24 08:31:37;;;;;;;7.70;4.20;;;;;;;;;;6294303;22;20006;-81
2022/11/24 08:34:04;;;;;;;8.52;4.72;;;;;;;;;;6292668;22;20048;-82
2022/11/24 08:36:30;;;;;;;8.25;4.68;;;;;;;;;;6265595;22;20312;-81
2022/11/24 08:38:57;;;;;;;9.95;4.95;;;;;;;;;;6291864;22;20019;-81
2022/11/24 08:41:23;;;;;;;7.88;4.93;;;;;;;;;;6265838;22;20015;-79
2022/11/24 08:43:49;;;;;;;8.13;4.55;;;;;;;;;;6292428;22;20004;-80
2022/11/24 08:46:17;;;;;;;9.65;5.35;;;;;;;;;;6265408;22;20106;-81
2022/11/24 08:48:43;;;;;;;7.43;5.30;;;;;;;;;;6265389;22;20008;-81
2022/11/24 08:51:11;;;;;;;8.88;5.07;;;;;;;;;;6292046;22;20074;-80
2022/11/24 08:53:37;;;;;;;7.95;4.75;;;;;;;;;;6294560;22;20081;-80
2022/11/24 08:56:04;;;;;;;7.57;4.65;;;;;;;;;;6289862;22;20006;-79
2022/11/24 08:58:30;;;;;;;8.40;4.97;;;;;;;;;;6291586;22;20055;-80
2022/11/24 09:01:03;;;;;;;9.95;4.82;;;;;;;;;;6263146;22;19984;-80
2022/11/24 09:03:29;;;;;;;8.65;4.50;;;;;;;;;;6290659;22;20071;-80
2022/11/24 09:05:55;;;;;;;6.65;3.97;;;;;;;;;;6290823;22;19996;-81
2022/11/24 09:08:21;;;;;;;8.57;5.13;;;;;;;;;;6264417;22;20004;-80
2022/11/24 09:10:47;;;;;;;8.52;4.70;;;;;;;;;;6263870;22;20080;-80
2022/11/24 09:13:13;;;;;;;9.57;4.50;;;;;;;;;;6263606;22;20011;-80
2022/11/24 09:15:39;;;;;;;8.07;4.47;;;;;;;;;;6290894;22;20024;-80
2022/11/24 09:18:05;;;;;;;8.30;4.93;;;;;;;;;;6290611;22;19999;-80
2022/11/24 09:20:31;;;;;;;9.80;5.63;;;;;;;;;;6257278;22;20386;-80
2022/11/24 09:22:57;;;;;;;10.57;6.30;;;;;;;;;;6290755;22;20075;-80
2022/11/24 09:25:23;;;;;;;10.20;6.50;;;;;;;;;;6263218;22;20003;-81
2022/11/24 09:27:50;;;;;;;10.27;5.93;;;;;;;;;;6263946;22;20011;-81
2022/11/24 09:30:16;;;;;;;11.55;6.38;;;;;;;;;;6262816;22;20000;-81
2022/11/24 09:32:42;;;;;;;11.20;6.80;;;;;;;;;;6290125;22;20000;-80
2022/11/24 09:35:08;;;;;;;11.73;7.32;;;;;;;;;;6263668;22;20081;-81
2022/11/24 09:37:34;;;;;;;11.93;7.50;;;;;;;;;;6289862;22;20019;-80
2022/11/24 09:40:00;;;;;;;10.85;6.90;;;;;;;;;;6263921;22;20007;-81
2022/11/24 09:42:26;;;;;;;12.02;6.63;;;;;;;;;;6265090;22;20015;-81
2022/11/24 09:45:08;;;;;;;12.35;7.25;;;;;;;;;;6289885;22;20530;-80
2022/11/24 09:47:51;;;;;;;11.65;7.05;;;;;;;;;;6292843;22;20090;-81
2022/11/24 09:50:22;;;;;;;11.77;7.00;;;;;;;;;;6269343;22;20007;-82
2022/11/24 09:53:07;;;;;;;10.05;6.55;;;;;;;;;;6269256;22;19995;-81
2022/11/24 09:55:33;;;;;;;11.43;6.63;;;;;;;;;;6269229;22;20000;-82
2022/11/24 09:58:18;;;;;;;11.95;7.40;;;;;;;;;;6296223;22;20424;-81
2022/11/24 10:00:45;;;;;;;11.13;7.43;;;;;;;;;;6296711;22;19995;-82
2022/11/24 10:03:34;;;;;;;13.88;7.28;;;;;;;;;;6262961;22;20004;-82
2022/11/24 10:06:02;;;;;;;14.93;7.90;;;;;;;;;;6244917;22;20008;-83
2022/11/24 10:08:38;;;;;;;10.88;6.97;;;;;;;;;;6269605;22;20004;-82
2022/11/24 10:11:15;;;;;;;15.23;7.22;;;;;;;;;;6296683;22;20000;-82
2022/11/24 10:13:47;;;;;;;13.85;8.77;;;;;;;;;;6268636;22;19999;-81
2022/11/24 10:16:32;;;;;;;14.48;8.48;;;;;;;;;;6296652;22;19992;-82
2022/11/24 10:19:01;;;;;;;13.70;7.85;;;;;;;;;;6266950;22;19999;-82
2022/11/24 10:21:46;;;;;;;12.35;7.03;;;;;;;;;;6293989;22;19999;-81
2022/11/24 10:24:27;;;;;;;13.48;7.97;;;;;;;;;;6292429;22;20000;-82
2022/11/24 10:27:00;;;;;;;11.85;7.57;;;;;;;;;;6290793;22;20251;-82
2022/11/24 10:29:38;;;;;;;10.93;6.90;;;;;;;;;;6291787;22;19999;-82
2022/11/24 10:32:07;;;;;;;13.77;7.13;;;;;;;;;;6265633;22;20004;-82
2022/11/24 10:34:48;;;;;;;12.85;7.57;;;;;;;;;;6265275;22;20055;-82
2022/11/24 10:37:19;;;;;;;11.75;7.32;;;;;;;;;;6264208;22;20035;-82
2022/11/24 10:39:49;;;;;;;12.02;6.28;;;;;;;;;;6293900;22;20000;-83
2022/11/24 10:42:29;;;;;;;11.50;6.43;;;;;;;;;;6264618;22;20014;-81
2022/11/24 10:45:03;;;;;;;10.98;5.88;;;;;;;;;;6263541;22;20016;-81
2022/11/24 10:47:30;;;;;;;9.55;5.43;;;;;;;;;;6289494;22;20054;-82
2022/11/24 10:50:02;;;;;;;7.93;4.40;;;;;;;;;;6289446;22;20004;-83
2022/11/24 10:52:30;;;;;;;9.10;4.88;;;;;;;;;;6263387;22;20010;-81
2022/11/24 10:55:00;;;;;;;8.40;4.70;;;;;;;;;;6285251;22;20060;-82
2022/11/24 10:57:31;;;;;;;8.07;4.82;;;;;;;;;;6285751;22;19995;-82
2022/11/24 10:59:57;;;;;;;10.27;5.22;;;;;;;;;;6283375;22;20008;-83
2022/11/24 11:02:28;;;;;;;7.95;4.90;;;;;;;;;;6257676;22;20045;-82
2022/11/24 11:04:54;;;;;;;8.00;4.72;;;;;;;;;;6256161;22;20338;-82
2022/11/24 11:07:22;;;;;;;8.30;4.97;;;;;;;;;;6282407;22;20011;-82
2022/11/24 11:09:48;;;;;;;10.38;5.93;;;;;;;;;;6254819;22;20014;-85
2022/11/24 11:12:22;;;;;;;8.05;4.53;;;;;;;;;;6254845;22;20023;-84
2022/11/24 11:14:49;;;;;;;7.05;3.90;;;;;;;;;;6255562;22;20024;-82
2022/11/24 11:17:53;;;;;;;8.38;4.35;;;;;;;;;;6283557;22;20083;-82
2022/11/24 11:20:22;;;;;;;9.73;4.75;;;;;;;;;;6128852;23;20033;-82
2022/11/24 11:22:49;;;;;;;7.65;4.20;;;;;;;;;;6130400;23;20017;-82
2022/11/24 11:25:20;;;;;;;9.10;5.15;;;;;;;;;;6129505;23;20018;-83
2022/11/24 11:27:47;;;;;;;6.13;4.03;;;;;;;;;;6128925;23;20070;-83
2022/11/24 11:30:13;;;;;;;10.02;4.70;;;;;;;;;;6105132;23;20567;-82
2022/11/24 11:32:50;;;;;;;10.75;4.85;;;;;;;;;;6128132;23;20002;-81
2022/11/24 11:35:16;;;;;;;8.32;5.13;;;;;;;;;;6103805;23;20061;-81
2022/11/24 11:37:43;;;;;;;7.55;4.15;;;;;;;;;;6104160;23;20009;-84
2022/11/24 11:40:21;;;;;;;9.00;4.68;;;;;;;;;;6103336;23;20006;-83
2022/11/24 11:42:49;;;;;;;7.13;4.18;;;;;;;;;;6127276;23;20006;-82
2022/11/24 11:45:16;;;;;;;7.93;4.47;;;;;;;;;;6127705;23;20026;-82
2022/11/24 11:47:45;;;;;;;8.60;4.88;;;;;;;;;;6102310;23;20013;-81
2022/11/24 11:50:12;;;;;;;8.60;4.25;;;;;;;;;;6127564;23;20010;-82
2022/11/24 11:52:46;;;;;;;7.53;3.83;;;;;;;;;;6126915;23;20447;-83
2022/11/24 11:55:32;;;;;;;8.55;4.80;;;;;;;;;;6211620;23;20094;-82
2022/11/24 11:58:07;;;;;;;7.40;4.25;;;;;;;;;;6222405;23;20004;-83
2022/11/24 12:00:39;;;;;;;8.10;4.35;;;;;;;;;;6222004;23;20000;-84
2022/11/24 12:03:24;;;;;;;7.85;3.83;;;;;;;;;;6222519;23;20079;-84
2022/11/24 12:06:19;;;;;;;7.32;3.60;;;;;;;;;;6250037;23;20077;-83
2022/11/24 12:08:54;;;;;;;6.30;3.45;;;;;;;;;;6212819;23;20000;-83
2022/11/24 12:11:20;;;;;;;7.65;3.28;;;;;;;;;;6248113;23;20314;-82
2022/11/24 12:14:10;;;;;;;6.60;3.08;;;;;;;;;;6221364;23;20031;-81
2022/11/24 12:16:45;;;;;;;6.50;3.30;;;;;;;;;;6221517;23;20007;-82
2022/11/24 12:19:17;;;;;;;7.03;3.65;;;;;;;;;;6248790;23;20004;-82
2022/11/24 12:21:46;;;;;;;6.50;3.47;;;;;;;;;;6221304;23;20012;-83
2022/11/24 12:24:31;;;;;;;6.57;3.35;;;;;;;;;;6221249;23;20081;-83
2022/11/24 12:27:03;;;;;;;6.65;3.10;;;;;;;;;;6220964;23;20348;-83
2022/11/24 12:29:33;;;;;;;6.32;3.72;;;;;;;;;;6247725;23;20004;-83
2022/11/24 12:32:22;;;;;;;7.75;3.65;;;;;;;;;;6249074;23;20071;-83
2022/11/24 12:34:59;;;;;;;7.95;3.92;;;;;;;;;;6218868;23;20023;-82
2022/11/24 12:37:34;;;;;;;7.72;3.97;;;;;;;;;;6248245;23;20373;-82
2022/11/24 12:40:05;;;;;;;7.68;4.30;;;;;;;;;;6248611;23;20007;-83
2022/11/24 12:42:50;;;;;;;7.20;4.43;;;;;;;;;;6221492;23;20000;-82
2022/11/24 12:45:36;;;;;;;6.18;3.42;;;;;;;;;;6233787;23;20095;-84
2022/11/24 12:48:08;;;;;;;5.90;3.22;;;;;;;;;;6246458;23;20008;-83
2022/11/24 12:50:36;;;;;;;5.45;3.20;;;;;;;;;;6247057;23;20004;-83
2022/11/24 12:53:11;;;;;;;6.35;3.25;;;;;;;;;;6248988;23;20004;-83
2022/11/24 12:55:39;;;;;;;6.47;2.92;;;;;;;;;;6250455;23;20007;-85
2022/11/24 12:58:10;;;;;;;7.25;3.65;;;;;;;;;;6251996;23;20015;-83
2022/11/24 13:00:48;;;;;;;6.85;3.30;;;;;;;;;;6250113;23;20004;-85
2022/11/24 13:03:26;;;;;;;8.52;3.72;;;;;;;;;;6250960;23;20340;-85
2022/11/24 13:05:57;;;;;;;9.63;4.85;;;;;;;;;;6250850;23;20145;-83
2022/11/24 13:08:24;;;;;;;7.90;3.95;;;;;;;;;;6251800;22;20387;-84
2022/11/24 13:10:50;;;;;;;8.25;5.10;;;;;;;;;;6248381;23;20004;-86
2022/11/24 13:13:17;;;;;;;7.35;4.40;;;;;;;;;;6248498;23;20048;-84
2022/11/24 13:15:52;;;;;;;8.63;3.72;;;;;;;;;;6254631;23;20007;-85
2022/11/24 13:18:38;;;;;;;7.22;3.53;;;;;;;;;;6252481;23;20312;-85
2022/11/24 13:21:23;;;;;;;6.07;3.30;;;;;;;;;;6252943;23;20035;-85
2022/11/24 13:23:57;;;;;;;7.93;3.40;;;;;;;;;;6252845;23;20079;-86
2022/11/24 13:26:49;;;;;;;6.82;3.75;;;;;;;;;;6260432;23;20074;-86
2022/11/24 13:29:28;;;;;;;7.32;3.80;;;;;;;;;;6226229;23;20012;-83
2022/11/24 13:31:55;;;;;;;7.20;3.42;;;;;;;;;;6259028;23;20008;-86
2022/11/24 13:34:40;;;;;;;8.40;3.35;;;;;;;;;;6257994;23;20004;-85
2022/11/24 13:37:18;;;;;;;5.70;2.80;;;;;;;;;;6258412;23;20000;-84
2022/11/24 13:39:50;;;;;;;8.15;4.22;;;;;;;;;;6260705;23;20044;-85
2022/11/24 13:42:16;;;;;;;7.53;3.80;;;;;;;;;;6261766;23;20030;-86
2022/11/24 13:46:57;;;;;;;6.88;3.40;;;;;;;;;;5098888;28;20414;-83
2022/11/24 13:49:24;;;;;;;8.75;4.13;;;;;;;;;;5062766;28;20029;-84
2022/11/24 13:51:56;;;;;;;5.50;3.08;;;;;;;;;;5074974;28;20029;-83
2022/11/24 13:54:24;;;;;;;7.93;3.55;;;;;;;;;;5082686;28;20017;-81
2022/11/24 13:56:50;;;;;;;7.35;3.08;;;;;;;;;;5080725;28;20078;-82
2022/11/24 13:59:21;;;;;;;8.15;3.45;;;;;;;;;;5081216;28;20077;-82
2022/11/24 14:01:55;;;;;;;6.95;3.55;;;;;;;;;;5080054;28;20028;-82
2022/11/24 14:04:23;;;;;;;6.60;3.08;;;;;;;;;;5075168;28;20025;-81
2022/11/24 14:06:52;;;;;;;8.05;3.72;;;;;;;;;;5061895;28;20040;-81
2022/11/24 14:09:24;;;;;;;8.30;3.83;;;;;;;;;;5056947;28;20052;-81
2022/11/24 14:11:56;;;;;;;6.53;3.70;;;;;;;;;;5057110;28;20022;-81
2022/11/24 14:14:23;;;;;;;7.10;3.63;;;;;;;;;;5054323;28;20030;-81
2022/11/24 14:17:04;;;;;;;7.20;4.00;;;;;;;;;;5055074;28;20126;-80
2022/11/24 14:19:31;;;;;;;8.13;3.88;;;;;;;;;;5054013;28;20056;-80
2022/11/24 14:21:57;;;;;;;6.72;3.60;;;;;;;;;;5056952;28;20021;-80
2022/11/24 14:24:24;;;;;;;8.45;3.35;;;;;;;;;;5059250;28;20021;-80
2022/11/24 14:26:50;;;;;;;7.30;3.28;;;;;;;;;;5058929;28;20407;-80
2022/11/24 14:29:20;;;;;;;5.55;3.65;;;;;;;;;;5060576;28;20018;-80
2022/11/24 14:31:56;;;;;;;6.18;3.10;;;;;;;;;;5064006;28;20017;-81
2022/11/24 14:34:23;;;;;;;6.25;2.85;;;;;;;;;;5062091;28;20017;-81
2022/11/24 14:36:50;;;;;;;6.50;2.97;;;;;;;;;;5061801;28;20025;-80
2022/11/24 14:39:18;;;;;;;6.18;3.28;;;;;;;;;;5061477;28;20017;-81
2022/11/24 14:42:04;;;;;;;5.65;3.00;;;;;;;;;;5062063;28;20032;-81